Time;durP1;ratioP1;P1;durP2;ratioP2;P2;SDS_P1;SDS_P2;PMS_P1;PMS_P2;Temp;Humidity;BMP_temperature;BMP_pressure;BME280_temperature;BME280_humidity;BME280_pressure;Samples;Min_cycle;Max_cycle;Signal;HPM_P1;HPM_P2
2023/02/26 00:01:51;;;;;;;;;;;;;;;;;;5006009;28;5036;-67
2023/02/26 00:04:16;;;;;;;;;;;;;;;;;;4995600;28;5140;-65
2023/02/26 00:06:51;;;;;;;;;;;;;;;;;;5006966;28;5109;-63
2023/02/26 00:09:16;;;;;;;;;;;;;;;;;;4996547;28;3639;-61
2023/02/26 00:11:41;;;;;;;;;;;;;;;;;;5006661;28;5008;-64
2023/02/26 00:14:08;;;;;;;;;;;;;;;;;;4996674;28;5055;-63
2023/02/26 00:16:34;;;;;;;;;;;;;;;;;;4993904;28;5605;-66
2023/02/26 00:19:00;;;;;;;;;;;;;;;;;;4995985;28;5027;-57
2023/02/26 00:21:25;;;;;;;;;;;;;;;;;;5002675;28;5046;-63
2023/02/26 00:23:51;;;;;;;;;;;;;;;;;;4990833;28;3429;-64
2023/02/26 00:26:16;;;;;;;;;;;;;;;;;;4995016;28;4829;-67
2023/02/26 00:28:42;;;;;;;;;;;;;;;;;;4996331;28;5588;-65
2023/02/26 00:31:07;;;;;;;;;;;;;;;;;;4990266;28;5212;-65
2023/02/26 00:33:33;;;;;;;;;;;;;;;;;;4992840;28;4795;-66
2023/02/26 00:36:17;;;;;;;;;;;;;;;;;;4989465;28;3437;-65
2023/02/26 00:38:42;;;;;;;;;;;;;;;;;;4996992;28;5066;-61
2023/02/26 00:41:07;;;;;;;;;;;;;;;;;;4991871;28;5353;-63
2023/02/26 00:43:33;;;;;;;;;;;;;;;;;;5019097;28;4906;-64
2023/02/26 00:46:02;;;;;;;;;;;;;;;;;;5007031;28;5021;-65
2023/02/26 00:48:27;;;;;;;;;;;;;;;;;;5000554;28;5356;-66
2023/02/26 00:50:58;;;;;;;;;;;;;;;;;;5007145;28;3688;-66
2023/02/26 00:53:26;;;;;;;;;;;;;;;;;;4994952;28;4799;-66
2023/02/26 00:55:51;;;;;;;;;;;;;;;;;;5001545;28;5053;-62
2023/02/26 00:58:17;;;;;;;;;;;;;;;;;;4998309;28;5596;-66
2023/02/26 01:00:42;;;;;;;;;;;;;;;;;;4991817;28;5262;-64
2023/02/26 01:03:07;;;;;;;;;;;;;;;;;;5000569;28;3472;-64
2023/02/26 01:05:33;;;;;;;;;;;;;;;;;;5006008;28;5070;-65
2023/02/26 01:08:12;;;;;;;;;;;;;;;;;;4983449;28;5268;-66
2023/02/26 01:10:37;;;;;;;;;;;;;;;;;;4993617;28;5108;-66
2023/02/26 01:13:03;;;;;;;;;;;;;;;;;;4996260;28;5149;-67
2023/02/26 01:15:28;;;;;;;;;;;;;;;;;;4997825;28;5297;-64
2023/02/26 01:17:56;;;;;;;;;;;;;;;;;;5001245;28;3551;-66
2023/02/26 01:20:22;;;;;;;;;;;;;;;;;;4999007;28;4513;-62
2023/02/26 01:22:54;;;;;;;;;;;;;;;;;;4996528;28;5192;-60
2023/02/26 01:25:19;;;;;;;;;;;;;;;;;;4988930;28;5346;-65
2023/02/26 01:27:45;;;;;;;;;;;;;;;;;;4996527;28;5136;-66
2023/02/26 01:30:10;;;;;;;;;;;;;;;;;;5002453;28;3535;-63
2023/02/26 01:32:42;;;;;;;;;;;;;;;;;;5004413;28;5043;-64
2023/02/26 01:35:10;;;;;;;;;;;;;;;;;;4988694;28;5080;-64
2023/02/26 01:37:45;;;;;;;;;;;;;;;;;;4992442;28;5055;-67
2023/02/26 01:40:22;;;;;;;;;;;;;;;;;;5000566;28;5090;-66
2023/02/26 01:42:49;;;;;;;;;;;;;;;;;;4992317;28;5030;-63
2023/02/26 01:45:15;;;;;;;;;;;;;;;;;;5008047;28;3612;-66
2023/02/26 01:47:55;;;;;;;;;;;;;;;;;;4990910;28;4900;-65
2023/02/26 01:50:24;;;;;;;;;;;;;;;;;;4992746;28;4974;-64
2023/02/26 01:52:49;;;;;;;;;;;;;;;;;;4995262;28;4548;-62
2023/02/26 01:55:23;;;;;;;;;;;;;;;;;;4994144;28;5013;-63
2023/02/26 01:57:48;;;;;;;;;;;;;;;;;;4990433;28;4952;-64
2023/02/26 02:00:14;;;;;;;;;;;;;;;;;;4991539;28;3524;-65
2023/02/26 02:02:39;;;;;;;;;;;;;;;;;;5006345;28;5043;-64
2023/02/26 02:05:06;;;;;;;;;;;;;;;;;;4995441;28;5224;-63
2023/02/26 02:07:31;;;;;;;;;;;;;;;;;;4991232;28;5117;-51
2023/02/26 02:09:57;;;;;;;;;;;;;;;;;;5002243;28;4658;-61
2023/02/26 02:12:22;;;;;;;;;;;;;;;;;;5009836;28;3332;-60
2023/02/26 02:14:53;;;;;;;;;;;;;;;;;;4974790;28;5001;-60
2023/02/26 02:17:19;;;;;;;;;;;;;;;;;;5013370;28;5371;-62
2023/02/26 02:19:44;;;;;;;;;;;;;;;;;;4998645;28;4998;-55
2023/02/26 02:22:28;;;;;;;;;;;;;;;;;;5008238;28;5163;-66
2023/02/26 02:25:12;;;;;;;;;;;;;;;;;;5007915;28;5247;-64
2023/02/26 02:27:45;;;;;;;;;;;;;;;;;;5007458;28;5052;-66
2023/02/26 02:30:13;;;;;;;;;;;;;;;;;;4999362;28;3545;-63
2023/02/26 02:32:42;;;;;;;;;;;;;;;;;;4997770;28;4723;-63
2023/02/26 02:35:20;;;;;;;;;;;;;;;;;;5008567;28;4686;-63
2023/02/26 02:38:06;;;;;;;;;;;;;;;;;;4999936;28;5179;-65
2023/02/26 02:40:32;;;;;;;;;;;;;;;;;;5001688;28;5541;-64
2023/02/26 02:42:59;;;;;;;;;;;;;;;;;;5000564;28;4851;-65
2023/02/26 02:45:27;;;;;;;;;;;;;;;;;;5004845;28;5062;-63
2023/02/26 02:47:55;;;;;;;;;;;;;;;;;;5008781;28;3674;-62
2023/02/26 02:50:23;;;;;;;;;;;;;;;;;;5009445;28;5035;-66
2023/02/26 02:52:59;;;;;;;;;;;;;;;;;;5010101;28;5506;-61
2023/02/26 02:55:26;;;;;;;;;;;;;;;;;;5003960;28;5054;-64
2023/02/26 02:57:59;;;;;;;;;;;;;;;;;;4974917;28;4711;-63
2023/02/26 03:00:24;;;;;;;;;;;;;;;;;;4997537;28;5060;-63
2023/02/26 03:02:53;;;;;;;;;;;;;;;;;;5001311;28;3571;-64
2023/02/26 03:05:18;;;;;;;;;;;;;;;;;;5009605;28;5117;-61
2023/02/26 03:07:46;;;;;;;;;;;;;;;;;;4983570;28;4629;-63
2023/02/26 03:10:11;;;;;;;;;;;;;;;;;;4996340;28;5563;-63
2023/02/26 03:12:36;;;;;;;;;;;;;;;;;;5001369;28;4937;-62
2023/02/26 03:15:02;;;;;;;;;;;;;;;;;;5004253;28;3504;-62
2023/02/26 03:17:39;;;;;;;;;;;;;;;;;;5000137;28;4613;-64
2023/02/26 03:20:07;;;;;;;;;;;;;;;;;;4996196;28;4739;-63
2023/02/26 03:22:33;;;;;;;;;;;;;;;;;;5005255;28;4528;-63
2023/02/26 03:25:18;;;;;;;;;;;;;;;;;;4995639;28;5062;-51
2023/02/26 03:27:52;;;;;;;;;;;;;;;;;;4993243;28;5093;-65
2023/02/26 03:30:23;;;;;;;;;;;;;;;;;;4993812;28;3542;-65
2023/02/26 03:33:07;;;;;;;;;;;;;;;;;;5003943;28;5361;-61
2023/02/26 03:35:36;;;;;;;;;;;;;;;;;;5000468;28;4675;-66
2023/02/26 03:38:02;;;;;;;;;;;;;;;;;;5003874;28;4966;-65
2023/02/26 03:40:45;;;;;;;;;;;;;;;;;;5009421;28;5219;-64
2023/02/26 03:43:10;;;;;;;;;;;;;;;;;;4994525;28;4561;-63
2023/02/26 03:45:36;;;;;;;;;;;;;;;;;;5016243;28;5530;-64
2023/02/26 03:48:02;;;;;;;;;;;;;;;;;;5005709;28;3426;-61
2023/02/26 03:50:37;;;;;;;;;;;;;;;;;;4998777;28;5011;-66
2023/02/26 03:53:04;;;;;;;;;;;;;;;;;;5008003;28;4936;-66
2023/02/26 03:55:32;;;;;;;;;;;;;;;;;;5002296;28;4629;-65
2023/02/26 03:57:57;;;;;;;;;;;;;;;;;;4995274;28;4818;-60
2023/02/26 04:00:22;;;;;;;;;;;;;;;;;;4990745;28;1605;-64
2023/02/26 04:02:50;;;;;;;;;;;;;;;;;;5009109;28;5076;-63
2023/02/26 04:05:20;;;;;;;;;;;;;;;;;;4995708;28;5151;-64
2023/02/26 04:07:46;;;;;;;;;;;;;;;;;;4998859;28;5566;-62
2023/02/26 04:10:13;;;;;;;;;;;;;;;;;;5002923;28;4430;-63
2023/02/26 04:12:38;;;;;;;;;;;;;;;;;;4991160;28;5259;-66
2023/02/26 04:15:04;;;;;;;;;;;;;;;;;;4994140;28;3508;-65
2023/02/26 04:17:29;;;;;;;;;;;;;;;;;;5004328;28;4626;-63
2023/02/26 04:19:54;;;;;;;;;;;;;;;;;;5002285;28;4645;-67
2023/02/26 04:22:20;;;;;;;;;;;;;;;;;;4994837;28;4610;-66
2023/02/26 04:24:45;;;;;;;;;;;;;;;;;;4999959;28;4718;-59
2023/02/26 04:27:10;;;;;;;;;;;;;;;;;;5008619;28;1089;-60
2023/02/26 04:29:36;;;;;;;;;;;;;;;;;;4994105;28;4741;-59
2023/02/26 04:32:01;;;;;;;;;;;;;;;;;;5004407;28;4424;-64
2023/02/26 04:34:27;;;;;;;;;;;;;;;;;;4995688;28;5029;-63
2023/02/26 04:36:52;;;;;;;;;;;;;;;;;;5005166;28;4715;-63
2023/02/26 04:39:17;;;;;;;;;;;;;;;;;;4996957;28;3623;-63
2023/02/26 04:41:42;;;;;;;;;;;;;;;;;;4998653;28;4547;-65
2023/02/26 04:44:08;;;;;;;;;;;;;;;;;;5005337;28;4926;-65
2023/02/26 04:46:33;;;;;;;;;;;;;;;;;;4993680;28;5068;-65
2023/02/26 04:48:58;;;;;;;;;;;;;;;;;;4993887;28;4651;-66
2023/02/26 04:51:24;;;;;;;;;;;;;;;;;;5007995;28;5223;-57
2023/02/26 04:53:49;;;;;;;;;;;;;;;;;;5009644;28;3444;-65
2023/02/26 04:56:14;;;;;;;;;;;;;;;;;;5005874;28;4602;-66
2023/02/26 04:58:39;;;;;;;;;;;;;;;;;;4997528;28;5188;-65
2023/02/26 05:01:05;;;;;;;;;;;;;;;;;;5000889;28;5291;-66
2023/02/26 05:03:30;;;;;;;;;;;;;;;;;;5002084;28;5585;-63
2023/02/26 05:05:55;;;;;;;;;;;;;;;;;;4993901;28;3491;-65
2023/02/26 05:08:20;;;;;;;;;;;;;;;;;;4998722;28;5173;-66
2023/02/26 05:10:46;;;;;;;;;;;;;;;;;;4996168;28;4671;-65
2023/02/26 05:13:11;;;;;;;;;;;;;;;;;;4997016;28;4544;-65
2023/02/26 05:15:36;;;;;;;;;;;;;;;;;;4990305;28;5107;-63
2023/02/26 05:18:01;;;;;;;;;;;;;;;;;;4985430;28;3507;-59
2023/02/26 05:20:27;;;;;;;;;;;;;;;;;;4990676;28;5144;-60
2023/02/26 05:22:52;;;;;;;;;;;;;;;;;;4996030;28;5004;-63
2023/02/26 05:25:17;;;;;;;;;;;;;;;;;;4991617;28;4973;-61
2023/02/26 05:27:43;;;;;;;;;;;;;;;;;;4996335;28;5043;-65
2023/02/26 05:30:08;;;;;;;;;;;;;;;;;;4996182;28;3509;-58
2023/02/26 05:32:34;;;;;;;;;;;;;;;;;;4994238;28;5136;-63
2023/02/26 05:34:59;;;;;;;;;;;;;;;;;;5005104;28;5171;-65
2023/02/26 05:37:24;;;;;;;;;;;;;;;;;;4990449;28;4594;-63
2023/02/26 05:39:49;;;;;;;;;;;;;;;;;;4999174;28;4892;-66
2023/02/26 05:42:15;;;;;;;;;;;;;;;;;;5009821;28;1152;-66
2023/02/26 05:44:40;;;;;;;;;;;;;;;;;;5013323;28;4625;-60
2023/02/26 05:47:05;;;;;;;;;;;;;;;;;;5012091;28;4938;-65
2023/02/26 05:49:30;;;;;;;;;;;;;;;;;;4989185;28;5214;-64
2023/02/26 05:51:56;;;;;;;;;;;;;;;;;;5001786;28;5076;-58
2023/02/26 05:54:21;;;;;;;;;;;;;;;;;;5000442;28;4201;-66
2023/02/26 05:56:46;;;;;;;;;;;;;;;;;;4990320;28;4615;-66
2023/02/26 05:59:12;;;;;;;;;;;;;;;;;;4992124;28;5209;-65
2023/02/26 06:01:37;;;;;;;;;;;;;;;;;;5000480;28;5085;-66
2023/02/26 06:04:05;;;;;;;;;;;;;;;;;;5001994;28;5223;-63
2023/02/26 06:06:30;;;;;;;;;;;;;;;;;;5009731;28;5055;-61
2023/02/26 06:08:56;;;;;;;;;;;;;;;;;;4990750;28;2291;-62
2023/02/26 06:11:21;;;;;;;;;;;;;;;;;;4987830;28;5084;-62
2023/02/26 06:13:46;;;;;;;;;;;;;;;;;;4993976;28;6514;-62
2023/02/26 06:16:12;;;;;;;;;;;;;;;;;;5000300;28;5100;-63
2023/02/26 06:18:37;;;;;;;;;;;;;;;;;;4994732;28;5252;-62
2023/02/26 06:21:02;;;;;;;;;;;;;;;;;;4993565;28;3853;-58
2023/02/26 06:23:27;;;;;;;;;;;;;;;;;;4995024;28;5036;-59
2023/02/26 06:25:53;;;;;;;;;;;;;;;;;;4994575;28;4523;-58
2023/02/26 06:28:18;;;;;;;;;;;;;;;;;;4994614;28;5341;-59
2023/02/26 06:30:44;;;;;;;;;;;;;;;;;;4986394;28;4769;-60
2023/02/26 06:33:09;;;;;;;;;;;;;;;;;;4990167;28;5087;-59
2023/02/26 06:35:34;;;;;;;;;;;;;;;;;;5016937;28;4950;-59
2023/02/26 06:38:00;;;;;;;;;;;;;;;;;;5015349;28;4491;-59
2023/02/26 06:40:25;;;;;;;;;;;;;;;;;;5023776;28;5032;-59
2023/02/26 06:42:50;;;;;;;;;;;;;;;;;;4989581;28;4578;-60
2023/02/26 06:45:16;;;;;;;;;;;;;;;;;;5017764;28;1428;-60
2023/02/26 06:47:41;;;;;;;;;;;;;;;;;;5012431;28;4805;-58
2023/02/26 06:50:06;;;;;;;;;;;;;;;;;;5017328;28;5063;-61
2023/02/26 06:52:32;;;;;;;;;;;;;;;;;;5016149;28;4856;-58
2023/02/26 06:54:57;;;;;;;;;;;;;;;;;;5016590;28;4989;-60
2023/02/26 06:57:22;;;;;;;;;;;;;;;;;;5026713;28;1093;-62
2023/02/26 06:59:47;;;;;;;;;;;;;;;;;;4995598;28;4975;-58
2023/02/26 07:02:19;;;;;;;;;;;;;;;;;;5006853;28;4979;-58
2023/02/26 07:04:45;;;;;;;;;;;;;;;;;;4995444;28;4440;-60
2023/02/26 07:07:10;;;;;;;;;;;;;;;;;;4998460;28;5498;-55
2023/02/26 07:09:36;;;;;;;;;;;;;;;;;;5008909;28;5078;-61
2023/02/26 07:12:01;;;;;;;;;;;;;;;;;;4988958;28;3674;-60
2023/02/26 07:14:26;;;;;;;;;;;;;;;;;;5007224;28;4827;-61
2023/02/26 07:16:51;;;;;;;;;;;;;;;;;;4993093;28;5091;-59
2023/02/26 07:19:17;;;;;;;;;;;;;;;;;;5005305;28;5696;-61
2023/02/26 07:21:42;;;;;;;;;;;;;;;;;;5010769;28;4704;-59
2023/02/26 07:24:07;;;;;;;;;;;;;;;;;;5011678;28;1148;-60
2023/02/26 07:26:33;;;;;;;;;;;;;;;;;;5016865;28;5473;-54
2023/02/26 07:28:58;;;;;;;;;;;;;;;;;;5011909;28;5389;-59
2023/02/26 07:31:23;;;;;;;;;;;;;;;;;;4995042;28;4564;-60
2023/02/26 07:33:48;;;;;;;;;;;;;;;;;;4998582;28;4629;-60
2023/02/26 07:36:14;;;;;;;;;;;;;;;;;;4996653;28;1233;-60
2023/02/26 07:38:39;;;;;;;;;;;;;;;;;;5018305;28;4667;-60
2023/02/26 07:41:04;;;;;;;;;;;;;;;;;;5019288;28;4820;-60
2023/02/26 07:43:29;;;;;;;;;;;;;;;;;;5002554;28;5395;-60
2023/02/26 07:45:55;;;;;;;;;;;;;;;;;;5026183;28;4488;-61
2023/02/26 07:48:20;;;;;;;;;;;;;;;;;;5030981;28;1918;-61
2023/02/26 07:50:45;;;;;;;;;;;;;;;;;;5012337;28;4783;-58
2023/02/26 07:53:10;;;;;;;;;;;;;;;;;;4991674;28;5060;-58
2023/02/26 07:55:36;;;;;;;;;;;;;;;;;;5023387;28;4617;-61
2023/02/26 07:58:01;;;;;;;;;;;;;;;;;;5012488;28;5015;-56
2023/02/26 08:00:26;;;;;;;;;;;;;;;;;;4995801;28;5138;-56
2023/02/26 08:02:52;;;;;;;;;;;;;;;;;;5003091;28;3526;-61
2023/02/26 08:05:17;;;;;;;;;;;;;;;;;;5007492;28;4965;-59
2023/02/26 08:07:42;;;;;;;;;;;;;;;;;;5008362;28;4542;-60
2023/02/26 08:10:08;;;;;;;;;;;;;;;;;;5004628;28;5084;-59
2023/02/26 08:12:33;;;;;;;;;;;;;;;;;;5006973;28;4941;-61
2023/02/26 08:14:59;;;;;;;;;;;;;;;;;;5020701;28;1268;-61
2023/02/26 08:17:24;;;;;;;;;;;;;;;;;;5008662;28;5542;-60
2023/02/26 08:19:49;;;;;;;;;;;;;;;;;;5008535;28;5049;-62
2023/02/26 08:22:14;;;;;;;;;;;;;;;;;;5009089;28;5062;-58
2023/02/26 08:24:40;;;;;;;;;;;;;;;;;;5009907;28;4898;-61
2023/02/26 08:27:05;;;;;;;;;;;;;;;;;;5018986;28;2211;-60
2023/02/26 08:29:30;;;;;;;;;;;;;;;;;;5007888;28;5024;-61
2023/02/26 08:31:56;;;;;;;;;;;;;;;;;;5009513;28;4478;-60
2023/02/26 08:34:21;;;;;;;;;;;;;;;;;;5008967;28;4614;-64
2023/02/26 08:36:46;;;;;;;;;;;;;;;;;;5020557;28;5122;-58
2023/02/26 08:39:11;;;;;;;;;;;;;;;;;;5002608;28;3517;-58
2023/02/26 08:41:37;;;;;;;;;;;;;;;;;;5005486;28;4524;-62
2023/02/26 08:44:02;;;;;;;;;;;;;;;;;;5013782;28;4785;-55
2023/02/26 08:46:27;;;;;;;;;;;;;;;;;;5016563;28;4749;-61
2023/02/26 08:48:53;;;;;;;;;;;;;;;;;;5016696;28;5443;-61
2023/02/26 08:51:21;;;;;;;;;;;;;;;;;;5013417;28;3657;-61
2023/02/26 08:53:46;;;;;;;;;;;;;;;;;;5011183;28;5007;-62
2023/02/26 08:56:12;;;;;;;;;;;;;;;;;;5019455;28;4790;-59
2023/02/26 08:58:37;;;;;;;;;;;;;;;;;;5013585;28;5223;-58
2023/02/26 09:01:02;;;;;;;;;;;;;;;;;;5001752;28;4666;-59
2023/02/26 09:03:27;;;;;;;;;;;;;;;;;;5003579;28;5722;-59
2023/02/26 09:05:53;;;;;;;;;;;;;;;;;;5001196;28;3437;-60
2023/02/26 09:08:19;;;;;;;;;;;;;;;;;;5013630;28;4929;-62
2023/02/26 09:10:44;;;;;;;;;;;;;;;;;;5005213;28;4856;-65
2023/02/26 09:13:10;;;;;;;;;;;;;;;;;;4992338;28;5133;-67
2023/02/26 09:15:35;;;;;;;;;;;;;;;;;;5018660;28;4646;-56
2023/02/26 09:18:00;;;;;;;;;;;;;;;;;;5019374;28;3810;-60
2023/02/26 09:20:26;;;;;;;;;;;;;;;;;;5001111;28;5118;-60
2023/02/26 09:22:51;;;;;;;;;;;;;;;;;;5017281;28;4996;-61
2023/02/26 09:25:17;;;;;;;;;;;;;;;;;;4997285;28;4970;-57
2023/02/26 09:27:42;;;;;;;;;;;;;;;;;;5007321;28;5197;-60
2023/02/26 09:30:07;;;;;;;;;;;;;;;;;;5010453;28;3398;-60
2023/02/26 09:32:33;;;;;;;;;;;;;;;;;;5013684;28;5006;-60
2023/02/26 09:34:58;;;;;;;;;;;;;;;;;;5001260;28;4582;-65
2023/02/26 09:37:23;;;;;;;;;;;;;;;;;;5005253;28;5499;-64
2023/02/26 09:39:49;;;;;;;;;;;;;;;;;;5005174;28;4784;-61
2023/02/26 09:42:43;;;;;;;;;;;;;;;;;;5006234;28;3114;-60
2023/02/26 09:45:15;;;;;;;;;;;;;;;;;;4991388;28;5121;-59
2023/02/26 09:47:45;;;;;;;;;;;;;;;;;;4990392;28;5016;-61
2023/02/26 09:50:16;;;;;;;;;;;;;;;;;;5005793;28;5077;-59
2023/02/26 09:52:41;;;;;;;;;;;;;;;;;;5008657;28;4459;-57
2023/02/26 09:55:11;;;;;;;;;;;;;;;;;;5011528;28;4900;-59
2023/02/26 09:57:40;;;;;;;;;;;;;;;;;;4991710;28;5121;-61
2023/02/26 10:00:25;;;;;;;;;;;;;;;;;;4998010;28;4133;-61
2023/02/26 10:03:04;;;;;;;;;;;;;;;;;;4989129;28;4648;-59
2023/02/26 10:05:32;;;;;;;;;;;;;;;;;;4998252;28;4523;-62
2023/02/26 10:08:09;;;;;;;;;;;;;;;;;;5009479;28;5075;-61
2023/02/26 10:10:41;;;;;;;;;;;;;;;;;;5006616;28;5124;-63
2023/02/26 10:13:09;;;;;;;;;;;;;;;;;;5010394;28;4533;-64
2023/02/26 10:15:35;;;;;;;;;;;;;;;;;;4993975;28;5521;-62
2023/02/26 10:18:04;;;;;;;;;;;;;;;;;;4992544;28;3327;-62
2023/02/26 10:20:35;;;;;;;;;;;;;;;;;;5016943;28;5165;-61
2023/02/26 10:23:03;;;;;;;;;;;;;;;;;;5016920;28;5145;-61
2023/02/26 10:25:49;;;;;;;;;;;;;;;;;;5013308;28;5086;-62
2023/02/26 10:28:17;;;;;;;;;;;;;;;;;;5004704;28;4501;-61
2023/02/26 10:30:43;;;;;;;;;;;;;;;;;;5008221;28;4603;-61
2023/02/26 10:33:38;;;;;;;;;;;;;;;;;;5007227;28;4724;-57
2023/02/26 10:36:11;;;;;;;;;;;;;;;;;;4988181;28;5118;-61
2023/02/26 10:38:36;;;;;;;;;;;;;;;;;;4998418;28;4531;-59
2023/02/26 10:41:06;;;;;;;;;;;;;;;;;;5011681;28;2071;-59
2023/02/26 10:43:48;;;;;;;;;;;;;;;;;;5012054;28;2191;-62
2023/02/26 10:46:26;;;;;;;;;;;;;;;;;;5030712;28;930;-62
2023/02/26 10:49:09;;;;;;;;;;;;;;;;;;5014305;28;1941;-62
2023/02/26 10:51:35;;;;;;;;;;;;;;;;;;5001319;28;2406;-61
2023/02/26 10:54:11;;;;;;;;;;;;;;;;;;4998685;28;1928;-63
2023/02/26 10:56:36;;;;;;;;;;;;;;;;;;5013906;28;2102;-64
2023/02/26 10:59:01;;;;;;;;;;;;;;;;;;5001666;28;6459;-61
2023/02/26 11:01:27;;;;;;;;;;;;;;;;;;5011774;28;5275;-62
2023/02/26 11:03:58;;;;;;;;;;;;;;;;;;5009458;28;2272;-62
2023/02/26 11:06:26;;;;;;;;;;;;;;;;;;5030123;28;1488;-60
2023/02/26 11:08:53;;;;;;;;;;;;;;;;;;4988421;28;2142;-61
2023/02/26 11:11:37;;;;;;;;;;;;;;;;;;4999921;28;6535;-63
2023/02/26 11:14:02;;;;;;;;;;;;;;;;;;5007837;28;2046;-63
2023/02/26 11:16:28;;;;;;;;;;;;;;;;;;5000726;28;2054;-63
2023/02/26 11:18:53;;;;;;;;;;;;;;;;;;5007891;28;1974;-62
2023/02/26 11:21:21;;;;;;;;;;;;;;;;;;5027478;28;1911;-63
2023/02/26 11:23:46;;;;;;;;;;;;;;;;;;5010139;28;1354;-61
2023/02/26 11:26:15;;;;;;;;;;;;;;;;;;4996318;28;1933;-63
2023/02/26 11:28:47;;;;;;;;;;;;;;;;;;4997619;28;1973;-63
2023/02/26 11:31:21;;;;;;;;;;;;;;;;;;5004824;28;2183;-65
2023/02/26 11:33:56;;;;;;;;;;;;;;;;;;4976932;28;1673;-61
2023/02/26 11:36:22;;;;;;;;;;;;;;;;;;5012024;28;1028;-62
2023/02/26 11:38:57;;;;;;;;;;;;;;;;;;4988743;28;2004;-62
2023/02/26 11:41:23;;;;;;;;;;;;;;;;;;4999527;28;1945;-62
2023/02/26 11:43:53;;;;;;;;;;;;;;;;;;5018262;28;2128;-65
2023/02/26 11:46:18;;;;;;;;;;;;;;;;;;5018158;28;1940;-63
2023/02/26 11:48:47;;;;;;;;;;;;;;;;;;5006628;28;1914;-63
2023/02/26 11:51:15;;;;;;;;;;;;;;;;;;5008469;28;2551;-61
2023/02/26 11:53:41;;;;;;;;;;;;;;;;;;4993492;28;1246;-63
2023/02/26 11:56:13;;;;;;;;;;;;;;;;;;4971109;28;6596;-60
2023/02/26 11:58:39;;;;;;;;;;;;;;;;;;5009005;28;5412;-59
2023/02/26 12:01:05;;;;;;;;;;;;;;;;;;5017127;28;5253;-62
2023/02/26 12:03:32;;;;;;;;;;;;;;;;;;5012867;28;4731;-59
2023/02/26 12:05:57;;;;;;;;;;;;;;;;;;5018859;28;5446;-60
2023/02/26 12:08:30;;;;;;;;;;;;;;;;;;5012449;28;5045;-61
2023/02/26 12:10:58;;;;;;;;;;;;;;;;;;5007028;28;4486;-61
2023/02/26 12:13:30;;;;;;;;;;;;;;;;;;5008430;28;5215;-62
2023/02/26 12:15:57;;;;;;;;;;;;;;;;;;5026178;28;2300;-61
2023/02/26 12:18:28;;;;;;;;;;;;;;;;;;5012478;28;5091;-59
2023/02/26 12:21:05;;;;;;;;;;;;;;;;;;5024632;28;4465;-60
2023/02/26 12:23:33;;;;;;;;;;;;;;;;;;5018297;28;4454;-61
2023/02/26 12:26:05;;;;;;;;;;;;;;;;;;5017434;28;4905;-61
2023/02/26 12:28:35;;;;;;;;;;;;;;;;;;5020841;28;5076;-61
2023/02/26 12:31:14;;;;;;;;;;;;;;;;;;5010290;28;5550;-60
2023/02/26 12:33:48;;;;;;;;;;;;;;;;;;5013535;28;4990;-62
2023/02/26 12:36:22;;;;;;;;;;;;;;;;;;5024354;28;4689;-60
2023/02/26 12:38:49;;;;;;;;;;;;;;;;;;5019685;28;5206;-57
2023/02/26 12:41:20;;;;;;;;;;;;;;;;;;5014794;28;5050;-61
2023/02/26 12:43:48;;;;;;;;;;;;;;;;;;5025922;28;4471;-59
2023/02/26 12:46:43;;;;;;;;;;;;;;;;;;5015627;28;1113;-58
2023/02/26 12:49:19;;;;;;;;;;;;;;;;;;5003003;28;5086;-59
2023/02/26 12:51:46;;;;;;;;;;;;;;;;;;5010172;28;5096;-62
2023/02/26 12:54:29;;;;;;;;;;;;;;;;;;5006068;28;5927;-62
2023/02/26 12:56:55;;;;;;;;;;;;;;;;;;4993403;28;4645;-61
2023/02/26 12:59:29;;;;;;;;;;;;;;;;;;5006951;28;5071;-67
2023/02/26 13:01:54;;;;;;;;;;;;;;;;;;4994079;28;5340;-66
2023/02/26 13:04:40;;;;;;;;;;;;;;;;;;5002985;28;5191;-62
2023/02/26 15:40:33;;;;;;;;;;;;;;;;;;5096140;27;5112;-55
2023/02/26 15:42:58;;;;;;;;;;;;;;;;;;5039728;28;3453;-60
2023/02/26 15:45:34;;;;;;;;;;;;;;;;;;5051903;28;5130;-56
2023/02/26 15:48:01;;;;;;;;;;;;;;;;;;5055331;28;4542;-53
2023/02/26 15:50:28;;;;;;;;;;;;;;;;;;5054438;28;4520;-59
2023/02/26 15:52:54;;;;;;;;;;;;;;;;;;5059877;28;4548;-56
2023/02/26 15:55:20;;;;;;;;;;;;;;;;;;5061580;28;4609;-49
2023/02/26 15:57:46;;;;;;;;;;;;;;;;;;5049835;28;3371;-58
2023/02/26 16:00:15;;;;;;;;;;;;;;;;;;5055017;28;5091;-56
2023/02/26 16:02:40;;;;;;;;;;;;;;;;;;5055899;28;5053;-56
2023/02/26 16:05:06;;;;;;;;;;;;;;;;;;5051684;28;4583;-57
2023/02/26 16:07:32;;;;;;;;;;;;;;;;;;5058118;28;4664;-56
2023/02/26 16:10:01;;;;;;;;;;;;;;;;;;5071592;28;3358;-61
2023/02/26 16:12:30;;;;;;;;;;;;;;;;;;5057142;28;4696;-58
2023/02/26 16:14:57;;;;;;;;;;;;;;;;;;5055501;28;5038;-59
2023/02/26 16:17:25;;;;;;;;;;;;;;;;;;5085706;28;4490;-59
2023/02/26 16:19:50;;;;;;;;;;;;;;;;;;5057417;28;4740;-54
2023/02/26 16:22:19;;;;;;;;;;;;;;;;;;5051855;28;3461;-56
2023/02/26 16:24:51;;;;;;;;;;;;;;;;;;5063866;28;5377;-62
2023/02/26 16:27:16;;;;;;;;;;;;;;;;;;5055310;28;4807;-57
2023/02/26 16:29:51;;;;;;;;;;;;;;;;;;5044571;28;4478;-60
2023/02/26 16:32:16;;;;;;;;;;;;;;;;;;5060308;28;5053;-58
2023/02/26 16:34:48;;;;;;;;;;;;;;;;;;5051377;28;4687;-50
2023/02/26 16:37:22;;;;;;;;;;;;;;;;;;5060725;28;3308;-58
2023/02/26 16:39:50;;;;;;;;;;;;;;;;;;5058356;28;4433;-58
2023/02/26 16:42:19;;;;;;;;;;;;;;;;;;5056881;28;4840;-56
2023/02/26 16:44:48;;;;;;;;;;;;;;;;;;5059017;28;4911;-56
2023/02/26 16:47:14;;;;;;;;;;;;;;;;;;5063072;28;4691;-59
2023/02/26 16:49:40;;;;;;;;;;;;;;;;;;5040145;28;6229;-57
2023/02/26 16:52:05;;;;;;;;;;;;;;;;;;5030278;28;5157;-63
2023/02/26 16:54:37;;;;;;;;;;;;;;;;;;5041830;28;5310;-60
2023/02/26 16:57:12;;;;;;;;;;;;;;;;;;5048480;28;4600;-58
2023/02/26 16:59:37;;;;;;;;;;;;;;;;;;5041945;28;5120;-58
2023/02/26 17:02:19;;;;;;;;;;;;;;;;;;5045842;28;5108;-60
2023/02/26 17:04:45;;;;;;;;;;;;;;;;;;5043614;28;4544;-57
2023/02/26 17:07:14;;;;;;;;;;;;;;;;;;5049919;28;5085;-61
2023/02/26 17:09:41;;;;;;;;;;;;;;;;;;5051916;28;3493;-58
2023/02/26 17:12:20;;;;;;;;;;;;;;;;;;5041877;28;4489;-57
2023/02/26 17:14:46;;;;;;;;;;;;;;;;;;5038995;28;5138;-63
2023/02/26 17:17:12;;;;;;;;;;;;;;;;;;5049165;28;4485;-54
2023/02/26 17:19:37;;;;;;;;;;;;;;;;;;5044247;28;4507;-57
2023/02/26 17:22:03;;;;;;;;;;;;;;;;;;5045818;28;4518;-58
2023/02/26 17:24:32;;;;;;;;;;;;;;;;;;5039322;28;5477;-50
2023/02/26 17:26:57;;;;;;;;;;;;;;;;;;5042133;28;2058;-55
2023/02/26 17:29:25;;;;;;;;;;;;;;;;;;5057126;28;2051;-57
2023/02/26 17:31:51;;;;;;;;;;;;;;;;;;5066506;28;1695;-54
2023/02/26 17:34:17;;;;;;;;;;;;;;;;;;5047004;28;1997;-58
2023/02/26 17:36:42;;;;;;;;;;;;;;;;;;5053767;28;1850;-55
2023/02/26 17:39:09;;;;;;;;;;;;;;;;;;5049898;28;1925;-53
2023/02/26 17:41:34;;;;;;;;;;;;;;;;;;5060437;28;1889;-54
2023/02/26 17:44:00;;;;;;;;;;;;;;;;;;5043140;28;2593;-54
2023/02/26 17:46:25;;;;;;;;;;;;;;;;;;5037798;28;6328;-55
2023/02/26 17:48:50;;;;;;;;;;;;;;;;;;5045777;28;2012;-54
2023/02/26 17:51:15;;;;;;;;;;;;;;;;;;5033198;28;6351;-54
2023/02/26 17:53:41;;;;;;;;;;;;;;;;;;5035669;28;5379;-56
2023/02/26 17:56:25;;;;;;;;;;;;;;;;;;5044114;28;2517;-55
2023/02/26 17:58:50;;;;;;;;;;;;;;;;;;5058260;28;1927;-54
2023/02/26 18:01:16;;;;;;;;;;;;;;;;;;5035534;28;1360;-53
2023/02/26 18:03:42;;;;;;;;;;;;;;;;;;5043163;28;6483;-56
2023/02/26 18:06:10;;;;;;;;;;;;;;;;;;5034744;28;4956;-52
2023/02/26 18:08:35;;;;;;;;;;;;;;;;;;5074290;28;2027;-58
2023/02/26 18:11:01;;;;;;;;;;;;;;;;;;5055029;28;1941;-57
2023/02/26 18:13:29;;;;;;;;;;;;;;;;;;5049377;28;2050;-57
2023/02/26 18:15:55;;;;;;;;;;;;;;;;;;5053525;28;1774;-57
2023/02/26 18:18:20;;;;;;;;;;;;;;;;;;5057533;28;1933;-55
2023/02/26 18:20:46;;;;;;;;;;;;;;;;;;5060356;28;1131;-57
2023/02/26 18:23:12;;;;;;;;;;;;;;;;;;5049415;28;1136;-57
2023/02/26 18:25:38;;;;;;;;;;;;;;;;;;5051239;28;1100;-57
2023/02/26 18:28:04;;;;;;;;;;;;;;;;;;5083016;28;1107;-58
2023/02/26 18:30:30;;;;;;;;;;;;;;;;;;5037181;28;1709;-56
2023/02/26 18:32:56;;;;;;;;;;;;;;;;;;5050876;28;1201;-58
2023/02/26 18:35:22;;;;;;;;;;;;;;;;;;5051124;28;1170;-57
2023/02/26 18:37:47;;;;;;;;;;;;;;;;;;5051249;28;1156;-55
2023/02/26 18:40:13;;;;;;;;;;;;;;;;;;5050223;28;1934;-55
2023/02/26 18:42:38;;;;;;;;;;;;;;;;;;5050814;28;1136;-57
2023/02/26 18:45:04;;;;;;;;;;;;;;;;;;5050865;28;1266;-57
2023/02/26 18:47:29;;;;;;;;;;;;;;;;;;5050816;28;1139;-59
2023/02/26 18:49:55;;;;;;;;;;;;;;;;;;5051033;28;1145;-57
2023/02/26 18:52:21;;;;;;;;;;;;;;;;;;5050021;28;1579;-57
2023/02/26 18:54:46;;;;;;;;;;;;;;;;;;5050219;28;1274;-56
2023/02/26 18:57:11;;;;;;;;;;;;;;;;;;5050412;28;1168;-57
2023/02/26 18:59:36;;;;;;;;;;;;;;;;;;5049349;28;1914;-58
2023/02/26 19:02:02;;;;;;;;;;;;;;;;;;5066355;28;1805;-59
2023/02/26 19:04:28;;;;;;;;;;;;;;;;;;5062775;28;1865;-57
2023/02/26 19:06:53;;;;;;;;;;;;;;;;;;5046835;28;2294;-57
2023/02/26 19:09:18;;;;;;;;;;;;;;;;;;5045647;28;2846;-56
2023/02/26 19:11:43;;;;;;;;;;;;;;;;;;5045242;28;1869;-58
2023/02/26 19:14:09;;;;;;;;;;;;;;;;;;5050278;28;2320;-58
2023/02/26 19:16:37;;;;;;;;;;;;;;;;;;5045784;28;2316;-64
2023/02/26 19:19:08;;;;;;;;;;;;;;;;;;5039428;28;1922;-57
2023/02/26 19:21:35;;;;;;;;;;;;;;;;;;5045527;28;1761;-58
2023/02/26 19:24:00;;;;;;;;;;;;;;;;;;5046672;28;1301;-55
2023/02/26 19:26:25;;;;;;;;;;;;;;;;;;5038564;28;2714;-55
2023/02/26 19:28:51;;;;;;;;;;;;;;;;;;5042631;28;1508;-53
2023/02/26 19:31:17;;;;;;;;;;;;;;;;;;5047186;28;1372;-51
2023/02/26 19:33:42;;;;;;;;;;;;;;;;;;5049932;28;1984;-56
2023/02/26 19:36:07;;;;;;;;;;;;;;;;;;5044324;28;1484;-54
2023/02/26 19:38:32;;;;;;;;;;;;;;;;;;5049864;28;1910;-55
2023/02/26 19:40:58;;;;;;;;;;;;;;;;;;5043386;28;1017;-55